Time;durP1;ratioP1;P1;durP2;ratioP2;P2;SDS_P1;SDS_P2;PMS_P1;PMS_P2;Temp;Humidity;BMP_temperature;BMP_pressure;BME280_temperature;BME280_humidity;BME280_pressure;Samples;Min_cycle;Max_cycle;Signal;HPM_P1;HPM_P2
2022/01/30 00:01:39;;;;;;;28.70;3.13;;;;;;;-146.48;100.00;32173.22;5303560;28;20367;-66
2022/01/30 00:04:11;;;;;;;23.58;3.13;;;;;;;-146.48;100.00;32272.69;5303675;28;20391;-66
2022/01/30 00:06:42;;;;;;;19.63;2.20;;;;;;;-146.48;100.00;32258.75;5303923;28;20094;-69
2022/01/30 00:09:18;;;;;;;21.33;3.47;;;;;;;-146.48;100.00;32338.34;5301054;28;20503;-69
2022/01/30 00:11:59;;;;;;;29.50;3.10;;;;;;;-146.48;100.00;32368.19;5304204;28;20058;-68
2022/01/30 00:14:34;;;;;;;21.98;2.53;;;;;;;-146.48;100.00;32441.81;5303283;28;20024;-68
2022/01/30 00:17:12;;;;;;;17.08;2.45;;;;;;;-146.48;100.00;32441.81;5303332;28;20028;-69
2022/01/30 00:19:48;;;;;;;23.90;3.17;;;;;;;-146.48;100.00;32431.84;5304190;28;20459;-69
2022/01/30 00:24:55;;;;;;;26.95;2.95;;;;;;;-146.48;100.00;32515.41;5303959;28;20063;-66
2022/01/30 00:27:33;;;;;;;19.58;3.13;;;;;;;-146.48;100.00;32515.41;5303378;28;20483;-67
2022/01/30 00:30:06;;;;;;;24.10;2.88;;;;;;;-146.48;100.00;32543.28;5302592;28;20020;-67
2022/01/30 00:32:37;;;;;;;27.80;3.00;;;;;;;-146.48;100.00;32565.16;5303761;28;20031;-66
2022/01/30 00:35:09;;;;;;;27.05;3.70;;;;;;;-146.48;100.00;32571.13;5303196;28;20024;-66
2022/01/30 00:37:42;;;;;;;24.20;2.90;;;;;;;-146.48;100.00;32630.81;5302792;28;20024;-66
2022/01/30 00:40:14;;;;;;;19.83;2.60;;;;;;;-146.48;100.00;32618.88;5302832;28;20024;-66
2022/01/30 00:42:45;;;;;;;23.80;2.53;;;;;;;-146.48;100.00;32700.47;5303076;28;20031;-66
2022/01/30 00:45:16;;;;;;;22.50;2.53;;;;;;;-146.48;100.00;32704.44;5302946;28;20059;-67
2022/01/30 00:47:48;;;;;;;27.92;3.65;;;;;;;-146.48;100.00;32740.25;5303042;28;20039;-66
2022/01/30 00:50:19;;;;;;;26.98;4.65;;;;;;;-146.48;100.00;32754.19;5301776;28;20428;-67
2022/01/30 00:52:54;;;;;;;29.52;3.47;;;;;;;-146.48;100.00;32817.88;5303104;28;20103;-67
2022/01/30 00:55:27;;;;;;;26.15;3.65;;;;;;;-146.48;100.00;32815.88;5302823;28;20039;-67
2022/01/30 00:57:59;;;;;;;25.20;2.65;;;;;;;-146.48;100.00;32744.25;5301506;28;20107;-67
2022/01/30 01:00:31;;;;;;;22.60;2.67;;;;;;;-146.48;100.00;32770.09;5303197;28;20439;-67
2022/01/30 01:03:04;;;;;;;25.13;3.38;;;;;;;-146.48;100.00;32807.91;5302427;28;20020;-67
2022/01/30 01:05:36;;;;;;;23.85;2.95;;;;;;;-146.48;100.00;32825.81;5302522;28;20047;-66
2022/01/30 01:08:13;;;;;;;21.75;2.35;;;;;;;-146.48;100.00;32935.28;5302206;28;20052;-67
2022/01/30 01:10:53;;;;;;;20.30;3.45;;;;;;;-146.48;100.00;33022.81;5302401;28;20028;-67
2022/01/30 01:13:51;;;;;;;27.45;3.15;;;;;;;-146.48;100.00;33074.56;5302621;28;20048;-67
2022/01/30 01:24:56;;;;;;;25.15;2.83;;;;;;;-146.48;100.00;33233.78;5301736;28;20484;-67
2022/01/30 01:27:27;;;;;;;23.92;2.60;;;;;;;-146.48;100.00;33347.19;5302717;28;20036;-67
2022/01/30 01:29:58;;;;;;;23.27;2.30;;;;;;;-146.48;100.00;33293.47;5302008;28;20028;-67
2022/01/30 01:32:30;;;;;;;29.75;2.55;;;;;;;-146.48;100.00;33400.94;5302135;28;20032;-67
2022/01/30 01:35:01;;;;;;;25.13;4.80;;;;;;;-146.48;100.00;33434.78;5302328;28;20020;-67
2022/01/30 01:37:32;;;;;;;25.20;2.40;;;;;;;-146.48;100.00;33430.78;5302725;28;20020;-67
2022/01/30 01:40:04;;;;;;;20.20;2.15;;;;;;;-146.48;100.00;33528.31;5301136;28;20472;-67
2022/01/30 01:42:36;;;;;;;26.77;2.83;;;;;;;-146.48;100.00;33518.34;5302558;28;20020;-67
2022/01/30 01:45:08;;;;;;;27.10;2.70;;;;;;;-146.48;100.00;33603.94;5302039;28;20058;-67
2022/01/30 01:47:39;;;;;;;21.75;2.55;;;;;;;-146.48;100.00;33675.59;5301907;28;20068;-66
2022/01/30 01:50:17;;;;;;;21.00;2.30;;;;;;;-146.48;100.00;33683.56;5301952;28;20028;-66
2022/01/30 01:52:48;;;;;;;22.80;2.90;;;;;;;-146.48;100.00;33808.94;5302522;28;20051;-66
2022/01/30 01:55:19;;;;;;;25.25;2.72;;;;;;;-146.48;100.00;33872.63;5300938;28;20036;-66
2022/01/30 01:57:51;;;;;;;25.45;3.10;;;;;;;-146.48;100.00;33898.50;5302641;28;20024;-66
2022/01/30 02:00:22;;;;;;;16.67;2.13;;;;;;;-146.48;100.00;33900.50;5301184;28;20024;-67
2022/01/30 02:02:54;;;;;;;30.25;2.58;;;;;;;-146.48;100.00;33896.50;5302136;28;20048;-66
2022/01/30 02:05:28;;;;;;;29.52;3.10;;;;;;;-146.48;100.00;33956.22;5302084;28;20380;-66
2022/01/30 02:08:27;;;;;;;24.38;3.13;;;;;;;-146.48;100.00;33952.25;5302245;28;20101;-66
2022/01/30 02:11:31;;;;;;;29.98;3.75;;;;;;;-146.48;100.00;33986.09;5305548;28;20117;-67
2022/01/30 02:14:13;;;;;;;26.50;3.33;;;;;;;-146.48;100.00;33972.16;5305647;28;20035;-67
2022/01/30 02:25:31;;;;;;;23.60;2.25;;;;;;;-146.48;100.00;34133.38;5305892;28;20036;-67
2022/01/30 02:28:09;;;;;;;23.23;3.40;;;;;;;-146.48;100.00;34169.22;5304527;28;20028;-67
2022/01/30 02:30:47;;;;;;;29.25;3.03;;;;;;;-146.48;100.00;34228.94;5305992;28;20036;-67
2022/01/30 02:33:21;;;;;;;27.45;3.83;;;;;;;-146.48;100.00;34384.19;5305582;28;20032;-67
2022/01/30 02:35:53;;;;;;;24.08;4.18;;;;;;;-146.48;100.00;34372.25;5305003;28;20119;-67
2022/01/30 02:38:25;;;;;;;29.75;3.25;;;;;;;-146.48;100.00;34451.88;5305501;28;20045;-67
2022/01/30 02:40:58;;;;;;;26.63;2.75;;;;;;;-146.48;100.00;34535.50;5304980;28;20443;-68
2022/01/30 02:43:38;;;;;;;31.30;3.20;;;;;;;-146.48;100.00;34670.84;5305107;28;20055;-67
2022/01/30 02:46:22;;;;;;;22.98;2.70;;;;;;;-146.48;100.00;34758.47;5305061;28;20085;-67
2022/01/30 02:48:58;;;;;;;30.20;3.83;;;;;;;-146.48;100.00;34901.81;5305551;28;20506;-68
2022/01/30 02:51:34;;;;;;;26.67;2.10;;;;;;;-146.48;100.00;35051.13;5304820;28;20099;-67
2022/01/30 02:54:07;;;;;;;30.80;3.08;;;;;;;-146.48;100.00;35013.28;5305257;28;20128;-67
2022/01/30 02:56:40;;;;;;;28.35;2.70;;;;;;;-146.48;100.00;35084.97;5304779;28;20085;-67
2022/01/30 02:59:12;;;;;;;25.70;4.32;;;;;;;-146.48;100.00;35146.69;5304727;28;20065;-67
2022/01/30 03:01:44;;;;;;;27.27;2.90;;;;;;;-146.48;100.00;35186.50;5305250;28;20024;-67
2022/01/30 03:04:16;;;;;;;15.43;1.33;;;;;;;-146.48;100.00;35230.31;5304282;28;20106;-67
2022/01/30 03:06:47;;;;;;;22.70;1.85;;;;;;;-146.48;100.00;35268.16;5305172;28;20491;-67
2022/01/30 03:09:19;;;;;;;24.08;3.28;;;;;;;-146.48;100.00;35355.75;5304749;28;20034;-67
2022/01/30 03:11:50;;;;;;;28.67;2.47;;;;;;;-146.48;100.00;35395.56;5296110;28;20082;-67
2022/01/30 03:14:21;;;;;;;23.92;2.65;;;;;;;-146.48;100.00;35379.66;5281497;28;20033;-68
2022/01/30 03:16:53;;;;;;;20.65;3.53;;;;;;;-146.48;100.00;35407.53;5282268;28;20029;-68
2022/01/30 03:19:24;;;;;;;34.45;2.85;;;;;;;-146.48;100.00;35469.25;5281288;28;20031;-68
2022/01/30 03:21:56;;;;;;;22.25;2.17;;;;;;;-146.48;100.00;35489.16;5282652;28;20028;-68
2022/01/30 03:24:34;;;;;;;22.50;2.47;;;;;;;-146.48;100.00;35519.03;5282123;28;20035;-68
2022/01/30 03:27:08;;;;;;;18.92;2.60;;;;;;;-146.48;100.00;35532.97;5282179;28;20353;-68
2022/01/30 03:29:41;;;;;;;22.30;2.40;;;;;;;-146.48;100.00;35546.91;5283104;28;20456;-68
2022/01/30 03:32:12;;;;;;;23.15;2.50;;;;;;;-146.48;100.00;35590.72;5281332;28;20032;-68
2022/01/30 03:34:45;;;;;;;20.10;2.63;;;;;;;-146.48;100.00;35576.78;5282847;28;20025;-68
2022/01/30 03:37:16;;;;;;;27.13;2.75;;;;;;;-146.48;100.00;35540.94;5282176;28;20064;-68
2022/01/30 03:39:47;;;;;;;14.38;1.83;;;;;;;-146.48;100.00;35566.81;5281921;28;20094;-66
2022/01/30 03:42:19;;;;;;;24.02;2.63;;;;;;;-146.48;100.00;35562.84;5281541;28;20029;-66
2022/01/30 03:44:50;;;;;;;22.00;3.78;;;;;;;-146.48;100.00;35495.13;5282617;28;20380;-66
2022/01/30 03:47:24;;;;;;;25.73;2.72;;;;;;;-146.48;100.00;35391.59;5281113;28;20029;-66
2022/01/30 03:49:56;;;;;;;20.48;2.05;;;;;;;-146.48;100.00;35445.34;5282105;28;20538;-67
2022/01/30 03:52:27;;;;;;;25.23;3.08;;;;;;;-146.48;100.00;35383.63;5281565;28;20139;-68
2022/01/30 03:54:58;;;;;;;27.45;2.58;;;;;;;-146.48;100.00;35417.47;5281549;28;20040;-67
2022/01/30 03:57:30;;;;;;;27.90;3.53;;;;;;;-146.48;100.00;35425.44;5282207;28;20024;-67
2022/01/30 04:00:01;;;;;;;29.60;3.22;;;;;;;-146.48;100.00;35405.53;5281039;28;20031;-67
2022/01/30 04:02:33;;;;;;;29.08;4.10;;;;;;;-146.48;100.00;35369.69;5282062;28;20086;-67
2022/01/30 04:05:04;;;;;;;27.15;3.22;;;;;;;-146.48;100.00;35405.53;5281580;28;20036;-67
2022/01/30 04:07:36;;;;;;;21.38;2.45;;;;;;;-146.48;100.00;35361.72;5280972;28;20048;-67
2022/01/30 04:10:08;;;;;;;27.65;3.67;;;;;;;-146.48;100.00;35365.72;5281642;28;20028;-67
2022/01/30 04:12:41;;;;;;;27.05;3.03;;;;;;;-146.48;100.00;35317.91;5281354;28;20033;-67
2022/01/30 04:15:13;;;;;;;29.42;2.47;;;;;;;-146.48;100.00;35302.00;5280980;28;20063;-67
2022/01/30 04:17:44;;;;;;;24.38;2.97;;;;;;;-146.48;100.00;35296.03;5282687;28;20033;-67
2022/01/30 04:20:16;;;;;;;27.95;3.78;;;;;;;-146.48;100.00;35244.25;5281792;28;20035;-67
2022/01/30 04:22:47;;;;;;;28.67;3.22;;;;;;;-146.48;100.00;35280.09;5281688;28;20384;-67
2022/01/30 04:25:19;;;;;;;23.38;2.22;;;;;;;-146.48;100.00;35236.28;5282307;28;20028;-67
2022/01/30 04:27:50;;;;;;;27.55;2.60;;;;;;;-146.48;100.00;35238.28;5281694;28;20107;-67
2022/01/30 04:30:22;;;;;;;23.63;2.50;;;;;;;-146.48;100.00;35174.56;5281872;28;20392;-67
2022/01/30 04:32:54;;;;;;;28.35;3.13;;;;;;;-146.48;100.00;35132.75;5282089;28;20021;-68
2022/01/30 04:35:28;;;;;;;22.80;2.70;;;;;;;-146.48;100.00;35118.81;5281325;28;20476;-67
2022/01/30 04:41:02;;;;;;;25.10;2.70;;;;;;;-146.48;100.00;34933.66;5282280;28;20061;-67
2022/01/30 05:00:26;;;;;;;26.15;3.88;;;;;;;-146.48;100.00;34424.00;5281447;28;20037;-67
2022/01/30 05:08:19;;;;;;;23.13;1.80;;;;;;;-146.48;100.00;34240.88;5281249;28;20131;-67
2022/01/30 05:10:53;;;;;;;21.52;1.75;;;;;;;-146.48;100.00;34242.88;5281159;28;20480;-67
2022/01/30 05:13:28;;;;;;;18.38;1.98;;;;;;;-146.48;100.00;34246.84;5281755;28;20059;-67
2022/01/30 05:16:00;;;;;;;17.35;2.25;;;;;;;-146.48;100.00;34348.38;5281099;28;20024;-67
2022/01/30 05:18:32;;;;;;;16.38;1.77;;;;;;;-146.48;100.00;34398.13;5281117;28;20464;-66
2022/01/30 05:21:03;;;;;;;17.52;2.33;;;;;;;-146.48;100.00;34459.84;5281209;28;20029;-66
2022/01/30 05:23:35;;;;;;;21.77;2.38;;;;;;;-146.48;100.00;34605.16;5281722;28;20062;-67
2022/01/30 05:26:08;;;;;;;20.02;3.00;;;;;;;-146.48;100.00;34726.59;5280616;28;20025;-67
2022/01/30 05:28:39;;;;;;;16.95;2.15;;;;;;;-146.48;100.00;34784.34;5281901;28;20031;-66
2022/01/30 05:31:11;;;;;;;27.15;2.47;;;;;;;-146.48;100.00;34897.81;5280313;28;20029;-66
2022/01/30 05:33:42;;;;;;;20.48;2.30;;;;;;;-146.48;100.00;34975.47;5281561;28;20033;-66
2022/01/30 05:36:14;;;;;;;18.00;3.28;;;;;;;-146.48;100.00;35029.22;5281125;28;20040;-66
2022/01/30 05:38:46;;;;;;;27.83;2.00;;;;;;;-146.48;100.00;35110.84;5280992;28;20028;-66
2022/01/30 05:41:17;;;;;;;15.95;2.22;;;;;;;-146.48;100.00;35168.59;5281178;28;20067;-66
2022/01/30 05:43:53;;;;;;;22.13;1.60;;;;;;;-146.48;100.00;35178.53;5284647;28;20044;-66
2022/01/30 05:46:36;;;;;;;23.20;2.30;;;;;;;-146.48;100.00;35240.28;5284545;28;20119;-66
2022/01/30 05:49:09;;;;;;;21.02;2.42;;;;;;;-146.48;100.00;35192.47;5285374;28;20357;-67
2022/01/30 05:51:41;;;;;;;19.48;2.45;;;;;;;-146.48;100.00;35212.41;5285844;28;20050;-67
2022/01/30 05:54:12;;;;;;;15.10;2.88;;;;;;;-146.48;100.00;35226.34;5284212;28;20028;-67
2022/01/30 05:56:43;;;;;;;24.35;2.90;;;;;;;-146.48;100.00;35176.56;5285472;28;20357;-66
2022/01/30 05:59:14;;;;;;;17.15;1.65;;;;;;;-146.48;100.00;35208.41;5284259;28;20028;-67
2022/01/30 06:01:46;;;;;;;24.23;2.47;;;;;;;-146.48;100.00;35172.56;5285410;28;20024;-67
2022/01/30 06:04:17;;;;;;;20.45;2.70;;;;;;;-146.48;100.00;35156.66;5284658;28;20391;-67
2022/01/30 06:06:51;;;;;;;17.58;1.27;;;;;;;-146.48;100.00;35184.53;5284195;28;20381;-67
2022/01/30 06:09:22;;;;;;;21.77;1.63;;;;;;;-146.48;100.00;35186.50;5284621;28;20380;-66
2022/01/30 06:11:54;;;;;;;19.58;2.13;;;;;;;-146.48;100.00;35202.44;5285236;28;20102;-67
2022/01/30 06:14:25;;;;;;;17.70;2.00;;;;;;;-146.48;100.00;35258.19;5284027;28;20035;-66
2022/01/30 06:16:56;;;;;;;13.20;1.15;;;;;;;-146.48;100.00;35184.53;5284487;28;20029;-67
2022/01/30 06:19:28;;;;;;;17.92;1.30;;;;;;;-146.48;100.00;35216.38;5285024;28;20054;-67
2022/01/30 06:21:59;;;;;;;17.85;2.17;;;;;;;-146.48;100.00;35206.41;5283589;28;20020;-67
2022/01/30 06:24:30;;;;;;;16.85;1.77;;;;;;;-146.48;100.00;35150.66;5285225;28;20025;-67
2022/01/30 06:27:02;;;;;;;15.68;1.92;;;;;;;-146.48;100.00;35154.66;5284375;28;20033;-67
2022/01/30 06:29:33;;;;;;;17.60;1.60;;;;;;;-146.48;100.00;35132.75;5284090;28;20028;-67
2022/01/30 06:32:05;;;;;;;19.95;1.67;;;;;;;-146.48;100.00;35059.09;5284108;28;20036;-67
2022/01/30 06:34:36;;;;;;;19.52;2.53;;;;;;;-146.48;100.00;34929.66;5284309;28;20025;-67
2022/01/30 06:37:07;;;;;;;16.45;1.80;;;;;;;-146.48;100.00;34846.06;5284129;28;20036;-67
2022/01/30 06:39:39;;;;;;;18.00;1.60;;;;;;;-146.48;100.00;34734.56;5284688;28;20101;-67
2022/01/30 06:42:10;;;;;;;20.52;1.75;;;;;;;-146.48;100.00;34529.50;5283313;28;20371;-67
2022/01/30 06:44:43;;;;;;;22.38;1.58;;;;;;;-146.48;100.00;34439.94;5284571;28;20029;-67
2022/01/30 06:47:14;;;;;;;21.10;2.17;;;;;;;-146.48;100.00;34256.78;5284013;28;20040;-67
2022/01/30 06:49:46;;;;;;;16.70;1.02;;;;;;;-146.48;100.00;34201.06;5283862;28;20013;-67
2022/01/30 06:52:17;;;;;;;17.52;1.30;;;;;;;-146.48;100.00;33984.09;5284150;28;20024;-68
2022/01/30 06:54:48;;;;;;;13.07;1.45;;;;;;;-146.48;100.00;33984.09;5283265;28;20016;-67
2022/01/30 06:57:19;;;;;;;21.45;3.15;;;;;;;-146.48;100.00;33902.50;5282926;28;20033;-67
2022/01/30 06:59:51;;;;;;;17.70;1.38;;;;;;;-146.48;100.00;33810.94;5284515;28;20108;-67
2022/01/30 07:02:22;;;;;;;21.88;2.10;;;;;;;-146.48;100.00;33781.06;5282846;28;20082;-68
2022/01/30 07:04:53;;;;;;;17.77;1.98;;;;;;;-146.48;100.00;33828.84;5283969;28;20381;-67
2022/01/30 07:07:25;;;;;;;20.42;2.85;;;;;;;-146.48;100.00;33942.28;5283487;28;20411;-68
2022/01/30 07:09:56;;;;;;;14.32;1.58;;;;;;;-146.48;100.00;34055.75;5282981;28;20460;-65
2022/01/30 07:12:27;;;;;;;15.45;1.65;;;;;;;-146.48;100.00;34165.22;5284116;28;20119;-67
2022/01/30 07:14:59;;;;;;;20.83;1.80;;;;;;;-146.48;100.00;34306.56;5283465;28;20025;-68
2022/01/30 07:17:30;;;;;;;15.95;1.73;;;;;;;-146.48;100.00;34370.25;5283295;28;20023;-67
2022/01/30 07:20:02;;;;;;;17.23;1.90;;;;;;;-146.48;100.00;34505.63;5283267;28;20028;-67
2022/01/30 07:22:34;;;;;;;23.30;3.30;;;;;;;-146.48;100.00;34672.84;5284148;28;20399;-67
2022/01/30 07:25:07;;;;;;;23.08;3.60;;;;;;;-146.48;100.00;34796.28;5282594;28;20020;-68
2022/01/30 07:27:39;;;;;;;20.02;1.75;;;;;;;-146.48;100.00;34901.81;5283823;28;20028;-67
2022/01/30 07:30:10;;;;;;;19.65;1.73;;;;;;;-146.48;100.00;34943.59;5283249;28;20074;-67
2022/01/30 07:32:41;;;;;;;22.08;3.50;;;;;;;-146.48;100.00;35019.25;5282791;28;20028;-67
2022/01/30 07:35:13;;;;;;;14.55;1.55;;;;;;;-146.48;100.00;35084.97;5283205;28;20025;-67
2022/01/30 07:37:44;;;;;;;16.08;1.90;;;;;;;-146.48;100.00;35128.78;5282920;28;20020;-68
2022/01/30 07:40:16;;;;;;;18.60;2.13;;;;;;;-146.48;100.00;35140.72;5283158;28;20062;-68
2022/01/30 07:42:47;;;;;;;20.95;1.27;;;;;;;-146.48;100.00;35094.91;5283532;28;20025;-67
2022/01/30 07:45:18;;;;;;;8.90;1.20;;;;;;;-146.48;100.00;35108.84;5282025;28;20554;-68
2022/01/30 07:47:50;;;;;;;16.38;1.40;;;;;;;-146.48;100.00;35212.41;5283309;28;20031;-67
2022/01/30 07:50:21;;;;;;;19.02;1.55;;;;;;;-146.48;100.00;35596.69;5282882;28;20103;-67
2022/01/30 07:52:52;;;;;;;21.45;1.55;;;;;;;-146.48;100.00;35527.00;5282166;28;20028;-67
2022/01/30 07:55:24;;;;;;;25.33;2.55;;;;;;;-146.48;100.00;35744.03;5282955;28;20036;-67
2022/01/30 07:57:55;;;;;;;28.88;2.17;;;;;;;-146.48;100.00;35769.94;5283193;28;20032;-68
2022/01/30 08:00:26;;;;;;;16.58;1.33;;;;;;;-146.48;100.00;35588.72;5281813;28;20028;-68
2022/01/30 08:02:58;;;;;;;13.90;1.08;;;;;;;-146.48;100.00;35517.03;5282492;28;20384;-68
2022/01/30 08:05:29;;;;;;;14.75;1.52;;;;;;;-146.48;100.00;35443.38;5282646;28;20024;-68
2022/01/30 08:08:00;;;;;;;18.88;1.52;;;;;;;-146.48;100.00;35194.47;5281206;28;20083;-68
2022/01/30 08:10:32;;;;;;;15.25;1.33;;;;;;;-146.48;100.00;34752.47;5283102;28;20035;-68
2022/01/30 08:13:03;;;;;;;14.45;1.75;;;;;;;-146.48;100.00;34177.19;5281671;28;20095;-67
2022/01/30 08:15:35;;;;;;;20.85;2.08;;;;;;;-146.48;100.00;33096.47;5282752;28;20060;-68
2022/01/30 08:18:06;;;;;;;17.05;2.63;;;;;;;-146.48;100.00;32636.78;5282172;28;20021;-69
2022/01/30 08:20:38;;;;;;;20.88;1.40;;;;;;;-146.48;100.00;32602.97;5281903;28;20034;-68
2022/01/30 08:23:14;;;;;;;23.48;1.70;;;;;;;-146.48;100.00;32266.72;5282168;28;20093;-68
2022/01/30 08:25:46;;;;;;;13.32;1.10;;;;;;;-146.48;100.00;32057.81;5282614;28;20040;-68
2022/01/30 08:28:17;;;;;;;13.05;1.90;;;;;;;-146.48;100.00;32035.94;5281171;28;20032;-68
2022/01/30 08:30:48;;;;;;;20.65;1.92;;;;;;;-146.48;100.00;32043.88;5282463;28;20035;-68
2022/01/30 08:33:20;;;;;;;18.27;1.60;;;;;;;-146.48;100.00;31882.75;5281732;28;20032;-67
2022/01/30 08:35:51;;;;;;;13.73;1.67;;;;;;;-146.48;100.00;31508.75;5281510;28;20025;-68
2022/01/30 08:38:22;;;;;;;19.33;1.35;;;;;;;-146.48;100.00;30794.72;5281716;28;20082;-68
2022/01/30 08:40:54;;;;;;;17.48;1.90;;;;;;;-146.48;100.00;30058.91;5281101;28;20031;-68
2022/01/30 08:43:25;;;;;;;19.85;1.77;;;;;;;-146.48;100.00;29581.72;5281848;28;20032;-68
2022/01/30 08:45:56;;;;;;;21.98;1.58;;;;;;;-146.48;100.00;29887.91;5281571;28;20021;-68
2022/01/30 08:48:30;;;;;;;20.98;2.75;;;;;;;-146.48;100.00;29683.09;5281522;28;20028;-68
2022/01/30 08:51:01;;;;;;;18.52;1.90;;;;;;;-146.48;100.00;29309.34;5281520;28;20028;-68
2022/01/30 08:53:33;;;;;;;23.15;1.30;;;;;;;-146.48;100.00;29243.72;5281999;28;20069;-69
2022/01/30 08:56:04;;;;;;;18.45;2.47;;;;;;;-146.48;100.00;29335.19;5280552;28;20017;-67
2022/01/30 08:58:36;;;;;;;16.85;1.98;;;;;;;-146.48;100.00;29462.41;5282269;28;20020;-67
2022/01/30 09:01:08;;;;;;;20.17;2.78;;;;;;;-146.48;100.00;29438.56;5281481;28;20021;-67
2022/01/30 09:03:40;;;;;;;19.77;1.50;;;;;;;-146.48;100.00;29394.81;5281148;28;20016;-67
2022/01/30 09:06:12;;;;;;;19.73;1.35;;;;;;;-146.48;100.00;29440.56;5280894;28;20380;-68
2022/01/30 09:08:43;;;;;;;17.27;1.67;;;;;;;-146.48;100.00;29514.13;5281823;28;20021;-67
2022/01/30 09:11:14;;;;;;;19.70;1.70;;;;;;;-146.48;100.00;29518.09;5280470;28;20491;-68
2022/01/30 09:13:45;;;;;;;14.48;1.70;;;;;;;-146.48;100.00;29301.38;5282075;28;20028;-67
2022/01/30 09:16:17;;;;;;;19.58;2.08;;;;;;;-146.48;100.00;29215.91;5280457;28;20032;-68
2022/01/30 09:18:48;;;;;;;20.20;3.17;;;;;;;-146.48;100.00;29466.41;5280786;28;20036;-68
2022/01/30 09:21:20;;;;;;;21.80;1.92;;;;;;;-146.48;100.00;29283.50;5281231;28;20029;-68
2022/01/30 09:23:52;;;;;;;23.85;2.10;;;;;;;-146.48;100.00;29092.63;5280964;28;20025;-68
2022/01/30 09:26:23;;;;;;;24.55;2.50;;;;;;;-146.48;100.00;28999.22;5281382;28;20070;-68
2022/01/30 09:28:55;;;;;;;15.45;2.00;;;;;;;-146.48;100.00;28929.63;5281173;28;20035;-69
2022/01/30 09:31:26;;;;;;;25.80;2.45;;;;;;;-146.48;100.00;28379.03;5280473;28;20028;-68
2022/01/30 09:33:57;;;;;;;20.20;2.10;;;;;;;-146.48;100.00;27919.91;5281213;28;20056;-68
2022/01/30 09:36:28;;;;;;;21.60;2.50;;;;;;;-146.48;100.00;27562.22;5281674;28;20025;-68
2022/01/30 09:39:01;;;;;;;25.25;2.75;;;;;;;-146.48;100.00;27164.78;5279976;28;20021;-67
2022/01/30 09:41:34;;;;;;;23.08;2.33;;;;;;;-146.48;100.00;26868.75;5281316;28;20028;-67
2022/01/30 09:44:05;;;;;;;15.95;2.42;;;;;;;-146.48;100.00;26648.22;5280704;28;20024;-68
2022/01/30 09:46:42;;;;;;;18.95;1.95;;;;;;;-146.48;100.00;26453.50;5281223;28;20502;-67
2022/01/30 09:49:14;;;;;;;16.50;1.58;;;;;;;-146.48;100.00;26276.72;5290070;28;20161;-67
2022/01/30 09:51:45;;;;;;;17.05;1.73;;;;;;;-146.48;100.00;26276.72;5292333;28;20035;-67
2022/01/30 09:54:17;;;;;;;20.38;2.13;;;;;;;-146.48;100.00;26123.75;5301687;28;20024;-67
2022/01/30 09:56:48;;;;;;;19.77;2.53;;;;;;;-146.48;100.00;26068.13;5302512;28;20036;-67
2022/01/30 09:59:20;;;;;;;18.75;2.65;;;;;;;-146.48;100.00;25778.13;5301235;28;20502;-67
2022/01/30 10:01:51;;;;;;;18.55;2.13;;;;;;;-146.48;100.00;25658.94;5302478;28;20028;-67
2022/01/30 10:04:22;;;;;;;17.38;2.60;;;;;;;-146.48;100.00;25565.59;5301977;28;20025;-67
2022/01/30 10:07:02;;;;;;;23.52;2.78;;;;;;;-146.48;100.00;25557.66;5301064;28;20131;-67
2022/01/30 10:09:36;;;;;;;17.02;1.98;;;;;;;-146.48;100.00;25561.63;5302355;28;20024;-67
2022/01/30 10:12:19;;;;;;;17.00;2.50;;;;;;;-146.48;100.00;25587.44;5301964;28;20130;-67
2022/01/30 10:15:05;;;;;;;18.85;2.10;;;;;;;-146.48;100.00;25368.97;5302123;28;20034;-67
2022/01/30 10:17:39;;;;;;;18.08;2.05;;;;;;;-146.48;100.00;25488.13;5302445;28;20472;-67
2022/01/30 10:20:13;;;;;;;24.98;2.70;;;;;;;-146.48;100.00;25398.75;5300680;28;20028;-66
2022/01/30 10:22:55;;;;;;;23.35;3.10;;;;;;;-146.48;100.00;25293.50;5302236;28;20103;-67
2022/01/30 10:25:30;;;;;;;20.42;2.55;;;;;;;-146.48;100.00;25303.44;5301802;28;20499;-67
2022/01/30 10:28:04;;;;;;;16.00;1.95;;;;;;;-146.48;100.00;25094.91;5300878;28;20028;-67
2022/01/30 10:30:50;;;;;;;23.35;3.05;;;;;;;-146.48;100.00;24989.66;5306086;28;20042;-68
2022/01/30 10:33:45;;;;;;;22.05;1.85;;;;;;;-146.48;100.00;24904.25;5298925;28;20032;-67
2022/01/30 10:36:22;;;;;;;23.80;2.30;;;;;;;-146.48;100.00;25041.28;5286645;28;20610;-67
2022/01/30 10:39:12;;;;;;;23.77;2.55;;;;;;;-146.48;100.00;25204.13;5283716;28;20029;-67
2022/01/30 10:41:53;;;;;;;22.88;2.63;;;;;;;-146.48;100.00;25160.44;5282798;28;20025;-66
2022/01/30 10:44:25;;;;;;;23.17;2.60;;;;;;;-146.48;100.00;25140.59;5292788;28;20043;-67
2022/01/30 10:46:56;;;;;;;28.98;2.92;;;;;;;-146.48;100.00;25184.28;5291528;28;20028;-68
2022/01/30 10:49:27;;;;;;;19.10;2.45;;;;;;;-146.48;100.00;25108.81;5284404;28;20116;-69
2022/01/30 10:52:01;;;;;;;26.30;3.63;;;;;;;-146.48;100.00;24828.81;5281583;28;20012;-70
2022/01/30 10:54:34;;;;;;;24.13;2.50;;;;;;;-146.48;100.00;24735.47;5282913;28;20025;-69
2022/01/30 10:57:06;;;;;;;18.50;2.88;;;;;;;-146.48;100.00;24550.78;5283250;28;20066;-69
2022/01/30 10:59:43;;;;;;;26.25;3.63;;;;;;;-146.48;100.00;24370.09;5283418;28;20024;-69
2022/01/30 11:02:17;;;;;;;23.95;2.35;;;;;;;-146.48;100.00;24235.09;5281949;28;20035;-69
2022/01/30 11:04:49;;;;;;;26.80;3.78;;;;;;;-146.48;100.00;23953.16;5283328;28;20029;-70
2022/01/30 11:07:27;;;;;;;27.95;3.92;;;;;;;-146.48;100.00;23996.84;5282150;28;20044;-69
2022/01/30 11:10:07;;;;;;;23.17;3.00;;;;;;;-146.48;100.00;24052.44;5282914;28;20040;-69
2022/01/30 11:12:56;;;;;;;24.23;2.50;;;;;;;-146.48;100.00;23967.06;5286781;28;20136;-69
2022/01/30 11:18:00;;;;;;;24.33;3.35;;;;;;;-146.48;100.00;24294.66;5282476;28;20039;-68
2022/01/30 11:20:33;;;;;;;23.30;4.15;;;;;;;-146.48;100.00;24304.59;5284031;28;20048;-67
2022/01/30 11:23:08;;;;;;;22.42;2.85;;;;;;;-146.48;100.00;24197.38;5281495;28;20115;-68
2022/01/30 11:25:43;;;;;;;25.25;2.92;;;;;;;-146.48;100.00;24098.09;5283495;28;20461;-68
2022/01/30 11:28:16;;;;;;;22.88;3.00;;;;;;;-146.48;100.00;24272.81;5283058;28;20059;-68
2022/01/30 11:30:49;;;;;;;21.77;3.05;;;;;;;-146.48;100.00;24358.19;5282994;28;20029;-68
2022/01/30 11:33:21;;;;;;;16.77;2.80;;;;;;;-146.48;100.00;24245.03;5282167;28;20075;-68
2022/01/30 11:35:54;;;;;;;26.23;2.55;;;;;;;-146.48;100.00;24149.72;5282519;28;20024;-69
2022/01/30 11:38:25;;;;;;;20.30;2.72;;;;;;;-146.48;100.00;24066.31;5281714;28;20078;-68
2022/01/30 11:41:16;;;;;;;23.08;3.45;;;;;;;-146.48;100.00;23728.81;5281394;28;20020;-69
2022/01/30 11:44:18;;;;;;;25.45;3.53;;;;;;;-146.48;100.00;23534.28;5282392;28;20029;-68
2022/01/30 11:46:55;;;;;;;23.27;1.98;;;;;;;-146.48;100.00;23478.69;5283265;28;20036;-68
2022/01/30 11:49:49;;;;;;;24.17;3.17;;;;;;;-146.48;100.00;23625.59;5282978;28;20036;-68
2022/01/30 11:52:54;;;;;;;17.60;2.22;;;;;;;-146.48;100.00;23744.72;5281849;28;20078;-68
2022/01/30 11:55:42;;;;;;;22.80;2.53;;;;;;;-146.48;100.00;23843.97;5283094;28;20472;-68
2022/01/30 11:58:38;;;;;;;26.70;2.50;;;;;;;-146.48;100.00;23907.50;5281880;28;20503;-68
2022/01/30 12:01:14;;;;;;;22.50;3.25;;;;;;;-146.48;100.00;23957.13;5282084;28;20012;-67
2022/01/30 12:03:51;;;;;;;20.23;2.70;;;;;;;-146.48;100.00;24102.06;5282842;28;20029;-68
2022/01/30 12:06:23;;;;;;;24.92;3.15;;;;;;;-146.48;100.00;24040.53;5281456;28;20039;-68
2022/01/30 12:08:56;;;;;;;21.15;3.20;;;;;;;-146.48;100.00;23935.28;5282397;28;20033;-68
2022/01/30 12:11:36;;;;;;;20.65;3.00;;;;;;;-146.48;100.00;23619.63;5282739;28;20060;-68
2022/01/30 12:14:10;;;;;;;20.27;3.35;;;;;;;-146.48;100.00;23304.00;5281283;28;20484;-69
2022/01/30 12:16:46;;;;;;;31.02;3.17;;;;;;;-146.48;100.00;23034.06;5282936;28;20032;-68
2022/01/30 12:19:33;;;;;;;19.42;2.67;;;;;;;-146.48;100.00;22702.59;5281330;28;20025;-69